Terminal Aerodrome Forecast
Issued by NWS

Home | Current Version | Previous Version | Text Only | Print | Product List | Glossary On
Versions: 1 2 3 4 5 6 7 8 9 10 11 12 13 14 15 16 17 18 19 20 21 22 23
000
FTUS43 KGRB 161723
TAFCWA
TAF
KCWA 161723Z 1618/1718 08008KT P6SM OVC012
     FM170400 09004KT P6SM OVC010
     FM170900 08004KT 6SM BR SCT005 OVC010
      TEMPO 1710/1714 4SM -FZDZ BR OVC005
     FM171400 09004KT 6SM BR SCT006 OVC012
      TEMPO 1714/1718 4SM -FZDZ BR OVC006=

USA.gov is the U.S. government's official web portal to all federal, state and local government web resources and services.